sensor_id;sensor_type;location;lat;lon;timestamp;P1;durP1;ratioP1;P2;durP2;ratioP2
71312;SDS011;59104;44.738;20.612;2022-08-18T00:02:25;4.72;;;3.60;;
71312;SDS011;59104;44.738;20.612;2022-08-18T00:04:43;5.45;;;3.25;;
71312;SDS011;59104;44.738;20.612;2022-08-18T00:07:10;4.63;;;3.25;;
71312;SDS011;59104;44.738;20.612;2022-08-18T00:09:38;4.63;;;3.22;;
71312;SDS011;59104;44.738;20.612;2022-08-18T00:12:05;6.00;;;3.35;;
71312;SDS011;59104;44.738;20.612;2022-08-18T00:14:32;4.35;;;3.47;;
71312;SDS011;59104;44.738;20.612;2022-08-18T00:16:58;8.32;;;3.40;;
71312;SDS011;59104;44.738;20.612;2022-08-18T00:19:24;5.95;;;3.42;;
71312;SDS011;59104;44.738;20.612;2022-08-18T00:21:49;6.60;;;3.63;;
71312;SDS011;59104;44.738;20.612;2022-08-18T00:24:15;3.63;;;3.05;;
71312;SDS011;59104;44.738;20.612;2022-08-18T00:26:40;4.72;;;3.30;;
71312;SDS011;59104;44.738;20.612;2022-08-18T00:29:06;3.53;;;2.97;;
71312;SDS011;59104;44.738;20.612;2022-08-18T00:31:32;5.97;;;3.13;;
71312;SDS011;59104;44.738;20.612;2022-08-18T00:33:57;3.70;;;3.17;;
71312;SDS011;59104;44.738;20.612;2022-08-18T00:36:23;3.92;;;3.50;;
71312;SDS011;59104;44.738;20.612;2022-08-18T00:38:48;5.45;;;3.30;;
71312;SDS011;59104;44.738;20.612;2022-08-18T00:41:14;6.00;;;3.40;;
71312;SDS011;59104;44.738;20.612;2022-08-18T00:46:06;5.43;;;3.35;;
71312;SDS011;59104;44.738;20.612;2022-08-18T00:48:32;7.05;;;3.78;;
71312;SDS011;59104;44.738;20.612;2022-08-18T00:50:58;6.13;;;3.45;;
71312;SDS011;59104;44.738;20.612;2022-08-18T00:55:50;3.28;;;2.95;;
71312;SDS011;59104;44.738;20.612;2022-08-18T00:58:33;4.30;;;3.25;;
71312;SDS011;59104;44.738;20.612;2022-08-18T01:01:00;8.93;;;3.58;;
71312;SDS011;59104;44.738;20.612;2022-08-18T01:03:27;3.50;;;2.80;;
71312;SDS011;59104;44.738;20.612;2022-08-18T01:06:38;6.32;;;3.45;;
71312;SDS011;59104;44.738;20.612;2022-08-18T01:08:42;4.88;;;3.05;;
71312;SDS011;59104;44.738;20.612;2022-08-18T01:11:08;4.53;;;3.72;;
71312;SDS011;59104;44.738;20.612;2022-08-18T01:13:37;6.45;;;3.33;;
71312;SDS011;59104;44.738;20.612;2022-08-18T01:16:03;4.47;;;3.47;;
71312;SDS011;59104;44.738;20.612;2022-08-18T01:18:49;7.85;;;3.85;;
71312;SDS011;59104;44.738;20.612;2022-08-18T01:21:35;4.47;;;2.97;;
71312;SDS011;59104;44.738;20.612;2022-08-18T01:24:22;5.43;;;3.53;;
71312;SDS011;59104;44.738;20.612;2022-08-18T01:27:09;7.05;;;3.20;;
71312;SDS011;59104;44.738;20.612;2022-08-18T01:29:35;4.63;;;3.28;;
71312;SDS011;59104;44.738;20.612;2022-08-18T01:32:01;5.93;;;3.22;;
71312;SDS011;59104;44.738;20.612;2022-08-18T01:34:26;5.22;;;3.45;;
71312;SDS011;59104;44.738;20.612;2022-08-18T01:36:52;4.00;;;3.55;;
71312;SDS011;59104;44.738;20.612;2022-08-18T01:39:19;4.85;;;2.90;;
71312;SDS011;59104;44.738;20.612;2022-08-18T01:41:45;7.47;;;2.90;;
71312;SDS011;59104;44.738;20.612;2022-08-18T01:44:10;6.97;;;3.72;;
71312;SDS011;59104;44.738;20.612;2022-08-18T01:46:37;4.20;;;3.58;;
71312;SDS011;59104;44.738;20.612;2022-08-18T01:49:02;7.25;;;3.42;;
71312;SDS011;59104;44.738;20.612;2022-08-18T01:51:28;4.20;;;3.30;;
71312;SDS011;59104;44.738;20.612;2022-08-18T01:53:54;5.53;;;3.17;;
71312;SDS011;59104;44.738;20.612;2022-08-18T01:56:20;4.05;;;3.00;;
71312;SDS011;59104;44.738;20.612;2022-08-18T01:58:45;4.03;;;3.15;;
71312;SDS011;59104;44.738;20.612;2022-08-18T02:01:13;4.35;;;3.53;;
71312;SDS011;59104;44.738;20.612;2022-08-18T02:03:40;7.85;;;3.53;;
71312;SDS011;59104;44.738;20.612;2022-08-18T02:06:08;5.35;;;3.22;;
71312;SDS011;59104;44.738;20.612;2022-08-18T02:08:34;5.43;;;3.80;;
71312;SDS011;59104;44.738;20.612;2022-08-18T02:10:59;7.00;;;3.50;;
71312;SDS011;59104;44.738;20.612;2022-08-18T02:13:25;4.63;;;3.47;;
71312;SDS011;59104;44.738;20.612;2022-08-18T02:15:51;3.53;;;3.03;;
71312;SDS011;59104;44.738;20.612;2022-08-18T02:18:17;4.45;;;3.40;;
71312;SDS011;59104;44.738;20.612;2022-08-18T02:20:44;4.75;;;3.53;;
71312;SDS011;59104;44.738;20.612;2022-08-18T02:23:09;4.05;;;3.00;;
71312;SDS011;59104;44.738;20.612;2022-08-18T02:25:35;6.28;;;4.00;;
71312;SDS011;59104;44.738;20.612;2022-08-18T02:28:00;4.97;;;3.75;;
71312;SDS011;59104;44.738;20.612;2022-08-18T02:30:26;5.78;;;3.35;;
71312;SDS011;59104;44.738;20.612;2022-08-18T02:32:51;5.05;;;3.30;;
71312;SDS011;59104;44.738;20.612;2022-08-18T02:35:17;5.03;;;3.38;;
71312;SDS011;59104;44.738;20.612;2022-08-18T02:37:42;5.45;;;3.40;;
71312;SDS011;59104;44.738;20.612;2022-08-18T02:40:12;5.22;;;3.47;;
71312;SDS011;59104;44.738;20.612;2022-08-18T02:42:38;5.80;;;3.55;;
71312;SDS011;59104;44.738;20.612;2022-08-18T02:45:04;4.47;;;3.55;;
71312;SDS011;59104;44.738;20.612;2022-08-18T02:47:29;4.93;;;3.72;;
71312;SDS011;59104;44.738;20.612;2022-08-18T02:49:55;4.43;;;3.58;;
71312;SDS011;59104;44.738;20.612;2022-08-18T02:52:21;6.70;;;3.50;;
71312;SDS011;59104;44.738;20.612;2022-08-18T02:54:47;3.92;;;3.53;;
71312;SDS011;59104;44.738;20.612;2022-08-18T02:57:13;5.70;;;4.00;;
71312;SDS011;59104;44.738;20.612;2022-08-18T02:59:39;5.35;;;4.22;;
71312;SDS011;59104;44.738;20.612;2022-08-18T03:02:05;4.25;;;3.45;;
71312;SDS011;59104;44.738;20.612;2022-08-18T03:04:31;3.92;;;3.40;;
71312;SDS011;59104;44.738;20.612;2022-08-18T03:06:58;4.20;;;3.75;;
71312;SDS011;59104;44.738;20.612;2022-08-18T03:09:24;4.25;;;3.72;;
71312;SDS011;59104;44.738;20.612;2022-08-18T03:11:50;5.50;;;4.60;;
71312;SDS011;59104;44.738;20.612;2022-08-18T03:14:17;8.43;;;3.85;;
71312;SDS011;59104;44.738;20.612;2022-08-18T03:16:44;6.28;;;4.03;;
71312;SDS011;59104;44.738;20.612;2022-08-18T03:19:10;4.72;;;3.97;;
71312;SDS011;59104;44.738;20.612;2022-08-18T03:21:35;4.70;;;3.80;;
71312;SDS011;59104;44.738;20.612;2022-08-18T03:24:03;5.00;;;4.07;;
71312;SDS011;59104;44.738;20.612;2022-08-18T03:26:29;5.72;;;3.75;;
71312;SDS011;59104;44.738;20.612;2022-08-18T03:28:55;6.78;;;3.70;;
71312;SDS011;59104;44.738;20.612;2022-08-18T03:31:21;5.88;;;4.25;;
71312;SDS011;59104;44.738;20.612;2022-08-18T03:33:47;6.20;;;4.10;;
71312;SDS011;59104;44.738;20.612;2022-08-18T03:36:14;5.32;;;4.10;;
71312;SDS011;59104;44.738;20.612;2022-08-18T03:38:41;7.05;;;4.10;;
71312;SDS011;59104;44.738;20.612;2022-08-18T03:41:11;6.95;;;3.85;;
71312;SDS011;59104;44.738;20.612;2022-08-18T03:43:38;5.63;;;4.30;;
71312;SDS011;59104;44.738;20.612;2022-08-18T03:46:04;5.88;;;3.55;;
71312;SDS011;59104;44.738;20.612;2022-08-18T03:48:30;6.18;;;4.30;;
71312;SDS011;59104;44.738;20.612;2022-08-18T03:51:04;5.50;;;4.05;;
71312;SDS011;59104;44.738;20.612;2022-08-18T03:53:31;4.72;;;3.85;;
71312;SDS011;59104;44.738;20.612;2022-08-18T03:55:59;6.78;;;3.95;;
71312;SDS011;59104;44.738;20.612;2022-08-18T03:58:24;5.85;;;4.53;;
71312;SDS011;59104;44.738;20.612;2022-08-18T04:00:50;9.07;;;3.72;;
71312;SDS011;59104;44.738;20.612;2022-08-18T04:03:16;6.97;;;4.68;;
71312;SDS011;59104;44.738;20.612;2022-08-18T04:05:41;6.90;;;3.97;;
71312;SDS011;59104;44.738;20.612;2022-08-18T04:08:06;7.05;;;4.43;;
71312;SDS011;59104;44.738;20.612;2022-08-18T04:10:32;6.15;;;3.97;;
71312;SDS011;59104;44.738;20.612;2022-08-18T04:13:00;4.25;;;3.85;;
71312;SDS011;59104;44.738;20.612;2022-08-18T04:15:26;4.18;;;3.78;;
71312;SDS011;59104;44.738;20.612;2022-08-18T04:17:52;7.30;;;4.32;;
71312;SDS011;59104;44.738;20.612;2022-08-18T04:20:18;5.80;;;4.43;;
71312;SDS011;59104;44.738;20.612;2022-08-18T04:22:44;6.05;;;4.50;;
71312;SDS011;59104;44.738;20.612;2022-08-18T04:25:10;5.28;;;4.40;;
71312;SDS011;59104;44.738;20.612;2022-08-18T04:27:37;5.88;;;3.63;;
71312;SDS011;59104;44.738;20.612;2022-08-18T04:30:07;7.68;;;4.82;;
71312;SDS011;59104;44.738;20.612;2022-08-18T04:32:33;4.57;;;3.80;;
71312;SDS011;59104;44.738;20.612;2022-08-18T04:34:58;5.47;;;4.25;;
71312;SDS011;59104;44.738;20.612;2022-08-18T04:37:25;11.05;;;4.28;;
71312;SDS011;59104;44.738;20.612;2022-08-18T04:39:50;5.63;;;4.47;;
71312;SDS011;59104;44.738;20.612;2022-08-18T04:42:16;4.75;;;4.10;;
71312;SDS011;59104;44.738;20.612;2022-08-18T04:44:41;6.13;;;4.68;;
71312;SDS011;59104;44.738;20.612;2022-08-18T04:47:07;5.78;;;4.38;;
71312;SDS011;59104;44.738;20.612;2022-08-18T04:49:33;4.88;;;3.92;;
71312;SDS011;59104;44.738;20.612;2022-08-18T04:51:59;7.93;;;5.18;;
71312;SDS011;59104;44.738;20.612;2022-08-18T04:54:43;5.63;;;4.60;;
71312;SDS011;59104;44.738;20.612;2022-08-18T04:57:14;6.05;;;4.88;;
71312;SDS011;59104;44.738;20.612;2022-08-18T04:59:40;6.20;;;4.95;;
71312;SDS011;59104;44.738;20.612;2022-08-18T05:02:06;7.75;;;4.50;;
71312;SDS011;59104;44.738;20.612;2022-08-18T05:04:33;8.05;;;5.10;;
71312;SDS011;59104;44.738;20.612;2022-08-18T05:06:59;6.53;;;4.57;;
71312;SDS011;59104;44.738;20.612;2022-08-18T05:09:24;6.75;;;5.10;;
71312;SDS011;59104;44.738;20.612;2022-08-18T05:11:50;8.32;;;5.30;;
71312;SDS011;59104;44.738;20.612;2022-08-18T05:14:15;8.48;;;5.03;;
71312;SDS011;59104;44.738;20.612;2022-08-18T05:16:41;8.98;;;5.72;;
71312;SDS011;59104;44.738;20.612;2022-08-18T05:19:08;9.13;;;6.65;;
71312;SDS011;59104;44.738;20.612;2022-08-18T05:21:33;12.10;;;7.07;;
71312;SDS011;59104;44.738;20.612;2022-08-18T05:24:01;9.18;;;5.90;;
71312;SDS011;59104;44.738;20.612;2022-08-18T05:26:27;6.85;;;5.60;;
71312;SDS011;59104;44.738;20.612;2022-08-18T05:28:52;10.07;;;5.32;;
71312;SDS011;59104;44.738;20.612;2022-08-18T05:31:19;10.07;;;5.28;;
71312;SDS011;59104;44.738;20.612;2022-08-18T05:33:46;7.07;;;4.97;;
71312;SDS011;59104;44.738;20.612;2022-08-18T05:41:35;5.03;;;3.33;;
71312;SDS011;59104;44.738;20.612;2022-08-18T05:44:01;5.43;;;3.78;;
71312;SDS011;59104;44.738;20.612;2022-08-18T05:46:37;3.97;;;3.53;;
71312;SDS011;59104;44.738;20.612;2022-08-18T05:49:04;3.78;;;3.20;;
71312;SDS011;59104;44.738;20.612;2022-08-18T05:51:32;4.93;;;3.67;;
71312;SDS011;59104;44.738;20.612;2022-08-18T05:53:58;4.85;;;3.92;;
71312;SDS011;59104;44.738;20.612;2022-08-18T05:56:43;5.57;;;3.72;;
71312;SDS011;59104;44.738;20.612;2022-08-18T05:59:13;4.80;;;3.35;;
71312;SDS011;59104;44.738;20.612;2022-08-18T06:01:41;4.85;;;3.95;;
71312;SDS011;59104;44.738;20.612;2022-08-18T06:04:21;7.20;;;5.45;;
71312;SDS011;59104;44.738;20.612;2022-08-18T06:06:48;6.88;;;4.90;;
71312;SDS011;59104;44.738;20.612;2022-08-18T06:11:42;7.35;;;5.55;;
71312;SDS011;59104;44.738;20.612;2022-08-18T06:14:08;7.28;;;4.78;;
71312;SDS011;59104;44.738;20.612;2022-08-18T06:27:26;7.60;;;4.90;;
71312;SDS011;59104;44.738;20.612;2022-08-18T06:37:22;6.93;;;5.53;;
71312;SDS011;59104;44.738;20.612;2022-08-18T06:39:52;8.70;;;5.82;;
71312;SDS011;59104;44.738;20.612;2022-08-18T06:42:19;7.25;;;5.72;;
71312;SDS011;59104;44.738;20.612;2022-08-18T06:44:50;7.25;;;5.32;;
71312;SDS011;59104;44.738;20.612;2022-08-18T06:49:54;6.53;;;5.15;;
71312;SDS011;59104;44.738;20.612;2022-08-18T06:52:27;6.45;;;4.90;;
71312;SDS011;59104;44.738;20.612;2022-08-18T06:54:54;5.30;;;4.15;;
71312;SDS011;59104;44.738;20.612;2022-08-18T06:57:24;4.88;;;3.70;;
71312;SDS011;59104;44.738;20.612;2022-08-18T07:00:08;5.82;;;4.82;;
71312;SDS011;59104;44.738;20.612;2022-08-18T07:02:39;6.43;;;5.03;;
71312;SDS011;59104;44.738;20.612;2022-08-18T07:05:14;7.35;;;5.78;;
71312;SDS011;59104;44.738;20.612;2022-08-18T07:07:45;7.13;;;5.60;;
71312;SDS011;59104;44.738;20.612;2022-08-18T07:12:39;6.57;;;5.40;;
71312;SDS011;59104;44.738;20.612;2022-08-18T07:15:05;8.15;;;5.40;;
71312;SDS011;59104;44.738;20.612;2022-08-18T07:17:32;6.53;;;5.60;;
71312;SDS011;59104;44.738;20.612;2022-08-18T07:22:24;10.15;;;5.60;;
71312;SDS011;59104;44.738;20.612;2022-08-18T07:24:50;7.35;;;5.30;;
71312;SDS011;59104;44.738;20.612;2022-08-18T07:27:22;10.57;;;6.07;;
71312;SDS011;59104;44.738;20.612;2022-08-18T07:32:56;9.43;;;5.30;;
71312;SDS011;59104;44.738;20.612;2022-08-18T07:35:35;5.82;;;5.15;;
71312;SDS011;59104;44.738;20.612;2022-08-18T07:38:12;6.65;;;5.03;;
71312;SDS011;59104;44.738;20.612;2022-08-18T07:40:44;5.95;;;4.57;;
71312;SDS011;59104;44.738;20.612;2022-08-18T07:43:16;5.20;;;4.68;;
71312;SDS011;59104;44.738;20.612;2022-08-18T07:45:43;5.53;;;4.72;;
71312;SDS011;59104;44.738;20.612;2022-08-18T07:48:30;5.80;;;5.20;;
71312;SDS011;59104;44.738;20.612;2022-08-18T07:51:05;5.80;;;4.93;;
71312;SDS011;59104;44.738;20.612;2022-08-18T07:53:38;5.22;;;4.57;;
71312;SDS011;59104;44.738;20.612;2022-08-18T07:59:01;6.63;;;4.75;;
71312;SDS011;59104;44.738;20.612;2022-08-18T15:05:52;3.83;;;3.53;;
71312;SDS011;59104;44.738;20.612;2022-08-18T15:08:19;3.97;;;3.60;;
71312;SDS011;59104;44.738;20.612;2022-08-18T15:10:44;4.32;;;3.92;;
71312;SDS011;59104;44.738;20.612;2022-08-18T15:13:10;4.05;;;3.75;;
71312;SDS011;59104;44.738;20.612;2022-08-18T15:15:35;3.55;;;3.30;;
71312;SDS011;59104;44.738;20.612;2022-08-18T15:18:01;4.40;;;4.00;;
71312;SDS011;59104;44.738;20.612;2022-08-18T15:20:27;3.80;;;3.50;;
71312;SDS011;59104;44.738;20.612;2022-08-18T15:22:53;4.43;;;3.55;;
71312;SDS011;59104;44.738;20.612;2022-08-18T15:25:37;3.53;;;3.22;;
71312;SDS011;59104;44.738;20.612;2022-08-18T15:30:37;4.03;;;3.63;;
71312;SDS011;59104;44.738;20.612;2022-08-18T15:33:03;4.88;;;3.63;;
71312;SDS011;59104;44.738;20.612;2022-08-18T15:35:29;4.03;;;3.63;;
71312;SDS011;59104;44.738;20.612;2022-08-18T15:37:54;3.65;;;3.35;;
71312;SDS011;59104;44.738;20.612;2022-08-18T15:40:21;5.47;;;3.45;;
71312;SDS011;59104;44.738;20.612;2022-08-18T15:42:48;3.70;;;3.40;;
71312;SDS011;59104;44.738;20.612;2022-08-18T15:45:18;4.25;;;2.97;;
71312;SDS011;59104;44.738;20.612;2022-08-18T15:47:45;3.45;;;3.25;;
71312;SDS011;59104;44.738;20.612;2022-08-18T15:50:12;3.53;;;3.22;;
71312;SDS011;59104;44.738;20.612;2022-08-18T15:52:48;3.65;;;3.35;;
71312;SDS011;59104;44.738;20.612;2022-08-18T15:55:17;3.72;;;3.42;;
71312;SDS011;59104;44.738;20.612;2022-08-18T15:57:44;3.50;;;3.20;;
71312;SDS011;59104;44.738;20.612;2022-08-18T16:00:10;4.20;;;3.40;;
71312;SDS011;59104;44.738;20.612;2022-08-18T16:02:39;4.47;;;3.40;;
71312;SDS011;59104;44.738;20.612;2022-08-18T16:05:05;5.68;;;3.70;;
71312;SDS011;59104;44.738;20.612;2022-08-18T16:07:30;3.72;;;3.40;;
71312;SDS011;59104;44.738;20.612;2022-08-18T16:09:56;6.32;;;3.22;;
71312;SDS011;59104;44.738;20.612;2022-08-18T16:12:22;3.90;;;3.50;;
71312;SDS011;59104;44.738;20.612;2022-08-18T16:14:47;4.03;;;3.63;;
71312;SDS011;59104;44.738;20.612;2022-08-18T16:17:16;3.92;;;3.53;;
71312;SDS011;59104;44.738;20.612;2022-08-18T16:19:42;3.63;;;3.33;;
71312;SDS011;59104;44.738;20.612;2022-08-18T16:22:07;3.77;;;3.47;;
71312;SDS011;59104;44.738;20.612;2022-08-18T16:24:33;4.13;;;3.35;;
71312;SDS011;59104;44.738;20.612;2022-08-18T16:26:58;4.25;;;3.90;;
71312;SDS011;59104;44.738;20.612;2022-08-18T16:29:24;3.95;;;3.63;;
71312;SDS011;59104;44.738;20.612;2022-08-18T16:31:49;3.50;;;3.20;;
71312;SDS011;59104;44.738;20.612;2022-08-18T16:34:15;3.72;;;3.20;;
71312;SDS011;59104;44.738;20.612;2022-08-18T16:36:41;5.82;;;3.70;;
71312;SDS011;59104;44.738;20.612;2022-08-18T16:39:06;3.83;;;3.47;;
71312;SDS011;59104;44.738;20.612;2022-08-18T16:41:32;4.25;;;3.45;;
71312;SDS011;59104;44.738;20.612;2022-08-18T16:43:57;5.45;;;3.60;;
71312;SDS011;59104;44.738;20.612;2022-08-18T16:46:23;4.25;;;3.03;;
71312;SDS011;59104;44.738;20.612;2022-08-18T16:48:54;5.03;;;3.95;;
71312;SDS011;59104;44.738;20.612;2022-08-18T16:51:21;4.40;;;2.90;;
71312;SDS011;59104;44.738;20.612;2022-08-18T16:53:48;3.33;;;3.03;;
71312;SDS011;59104;44.738;20.612;2022-08-18T16:56:17;3.58;;;2.67;;
71312;SDS011;59104;44.738;20.612;2022-08-18T16:58:43;3.10;;;2.75;;
71312;SDS011;59104;44.738;20.612;2022-08-18T17:01:27;2.95;;;2.60;;
71312;SDS011;59104;44.738;20.612;2022-08-18T17:04:12;3.00;;;2.70;;
71312;SDS011;59104;44.738;20.612;2022-08-18T17:06:38;2.70;;;2.50;;
71312;SDS011;59104;44.738;20.612;2022-08-18T17:09:04;3.30;;;3.00;;
71312;SDS011;59104;44.738;20.612;2022-08-18T17:11:30;4.10;;;2.90;;
71312;SDS011;59104;44.738;20.612;2022-08-18T17:13:57;3.38;;;3.05;;
71312;SDS011;59104;44.738;20.612;2022-08-18T17:16:23;3.45;;;3.15;;
71312;SDS011;59104;44.738;20.612;2022-08-18T17:18:49;3.30;;;3.05;;
71312;SDS011;59104;44.738;20.612;2022-08-18T17:21:16;3.28;;;2.63;;
71312;SDS011;59104;44.738;20.612;2022-08-18T17:23:42;3.40;;;3.08;;
71312;SDS011;59104;44.738;20.612;2022-08-18T17:26:11;3.05;;;2.78;;
71312;SDS011;59104;44.738;20.612;2022-08-18T17:28:45;3.05;;;2.78;;
71312;SDS011;59104;44.738;20.612;2022-08-18T17:31:13;4.00;;;3.35;;
71312;SDS011;59104;44.738;20.612;2022-08-18T17:33:39;10.55;;;6.40;;
71312;SDS011;59104;44.738;20.612;2022-08-18T17:36:09;6.07;;;4.20;;
71312;SDS011;59104;44.738;20.612;2022-08-18T17:41:02;5.68;;;3.70;;
71312;SDS011;59104;44.738;20.612;2022-08-18T17:43:29;3.50;;;3.10;;
71312;SDS011;59104;44.738;20.612;2022-08-18T17:46:00;5.00;;;3.50;;
71312;SDS011;59104;44.738;20.612;2022-08-18T17:48:26;5.80;;;3.72;;
71312;SDS011;59104;44.738;20.612;2022-08-18T17:50:57;4.35;;;3.95;;
71312;SDS011;59104;44.738;20.612;2022-08-18T17:53:43;4.60;;;4.13;;
71312;SDS011;59104;44.738;20.612;2022-08-18T17:56:15;4.97;;;4.45;;
71312;SDS011;59104;44.738;20.612;2022-08-18T17:58:44;4.93;;;4.18;;
71312;SDS011;59104;44.738;20.612;2022-08-18T18:01:12;4.88;;;4.20;;
71312;SDS011;59104;44.738;20.612;2022-08-18T18:03:38;4.65;;;4.10;;
71312;SDS011;59104;44.738;20.612;2022-08-18T18:06:15;5.25;;;3.80;;
71312;SDS011;59104;44.738;20.612;2022-08-18T18:08:50;4.80;;;4.28;;
71312;SDS011;59104;44.738;20.612;2022-08-18T18:13:42;6.22;;;4.68;;
71312;SDS011;59104;44.738;20.612;2022-08-18T18:16:21;5.70;;;4.22;;
71312;SDS011;59104;44.738;20.612;2022-08-18T18:18:52;6.38;;;4.30;;
71312;SDS011;59104;44.738;20.612;2022-08-18T18:21:21;4.43;;;3.75;;
71312;SDS011;59104;44.738;20.612;2022-08-18T18:23:48;4.78;;;3.80;;
71312;SDS011;59104;44.738;20.612;2022-08-18T18:26:18;4.70;;;3.53;;
71312;SDS011;59104;44.738;20.612;2022-08-18T18:28:44;4.22;;;3.75;;
71312;SDS011;59104;44.738;20.612;2022-08-18T18:31:17;6.47;;;3.85;;
71312;SDS011;59104;44.738;20.612;2022-08-18T18:33:45;5.05;;;3.75;;
71312;SDS011;59104;44.738;20.612;2022-08-18T18:36:10;5.05;;;4.28;;
71312;SDS011;59104;44.738;20.612;2022-08-18T18:38:37;6.40;;;5.18;;
71312;SDS011;59104;44.738;20.612;2022-08-18T18:43:40;8.32;;;5.18;;
71312;SDS011;59104;44.738;20.612;2022-08-18T18:49:20;6.40;;;5.22;;
71312;SDS011;59104;44.738;20.612;2022-08-18T18:53:59;5.80;;;5.20;;
71312;SDS011;59104;44.738;20.612;2022-08-18T18:56:34;7.40;;;4.97;;
71312;SDS011;59104;44.738;20.612;2022-08-18T19:04:15;8.32;;;5.57;;
71312;SDS011;59104;44.738;20.612;2022-08-18T19:06:49;5.40;;;4.78;;
71312;SDS011;59104;44.738;20.612;2022-08-18T19:09:20;5.78;;;5.07;;
71312;SDS011;59104;44.738;20.612;2022-08-18T19:14:27;6.07;;;5.00;;
71312;SDS011;59104;44.738;20.612;2022-08-18T19:19:24;7.38;;;5.00;;
71312;SDS011;59104;44.738;20.612;2022-08-18T19:21:57;6.13;;;5.53;;
71312;SDS011;59104;44.738;20.612;2022-08-18T19:24:25;8.55;;;5.25;;
71312;SDS011;59104;44.738;20.612;2022-08-18T19:26:57;7.60;;;5.63;;
71312;SDS011;59104;44.738;20.612;2022-08-18T19:29:25;7.25;;;5.70;;
71312;SDS011;59104;44.738;20.612;2022-08-18T19:32:25;14.95;;;9.65;;
71312;SDS011;59104;44.738;20.612;2022-08-18T19:34:43;13.88;;;9.30;;
71312;SDS011;59104;44.738;20.612;2022-08-18T19:40:18;9.60;;;7.32;;
71312;SDS011;59104;44.738;20.612;2022-08-18T19:42:50;10.23;;;7.20;;
71312;SDS011;59104;44.738;20.612;2022-08-18T19:47:50;6.72;;;5.47;;
71312;SDS011;59104;44.738;20.612;2022-08-18T19:55:23;7.82;;;5.13;;
71312;SDS011;59104;44.738;20.612;2022-08-18T20:00:36;7.78;;;5.18;;
71312;SDS011;59104;44.738;20.612;2022-08-18T20:06:13;6.65;;;5.45;;
71312;SDS011;59104;44.738;20.612;2022-08-18T20:13:58;7.05;;;4.90;;
71312;SDS011;59104;44.738;20.612;2022-08-18T20:18:50;6.45;;;5.25;;
71312;SDS011;59104;44.738;20.612;2022-08-18T20:24:00;6.38;;;5.20;;
71312;SDS011;59104;44.738;20.612;2022-08-18T20:26:47;7.38;;;4.32;;
71312;SDS011;59104;44.738;20.612;2022-08-18T20:34:08;5.63;;;4.57;;
71312;SDS011;59104;44.738;20.612;2022-08-18T20:36:35;5.50;;;4.35;;
71312;SDS011;59104;44.738;20.612;2022-08-18T20:41:46;8.15;;;5.20;;
71312;SDS011;59104;44.738;20.612;2022-08-18T20:57:40;8.32;;;6.88;;
71312;SDS011;59104;44.738;20.612;2022-08-18T21:00:09;10.05;;;7.75;;
71312;SDS011;59104;44.738;20.612;2022-08-18T21:02:39;8.70;;;6.38;;
71312;SDS011;59104;44.738;20.612;2022-08-18T21:05:10;8.68;;;6.53;;
71312;SDS011;59104;44.738;20.612;2022-08-18T21:07:37;7.82;;;6.93;;
71312;SDS011;59104;44.738;20.612;2022-08-18T21:12:38;8.60;;;6.68;;
71312;SDS011;59104;44.738;20.612;2022-08-18T21:15:06;8.25;;;6.90;;
71312;SDS011;59104;44.738;20.612;2022-08-18T21:17:32;9.40;;;7.13;;
71312;SDS011;59104;44.738;20.612;2022-08-18T21:20:02;9.13;;;6.68;;
71312;SDS011;59104;44.738;20.612;2022-08-18T21:22:28;8.40;;;6.40;;
71312;SDS011;59104;44.738;20.612;2022-08-18T21:24:54;10.88;;;7.03;;
71312;SDS011;59104;44.738;20.612;2022-08-18T21:27:27;8.43;;;6.95;;
71312;SDS011;59104;44.738;20.612;2022-08-18T21:29:53;7.40;;;6.55;;
71312;SDS011;59104;44.738;20.612;2022-08-18T21:32:22;9.27;;;6.85;;
71312;SDS011;59104;44.738;20.612;2022-08-18T21:34:49;9.18;;;6.32;;
71312;SDS011;59104;44.738;20.612;2022-08-18T21:37:15;9.45;;;6.78;;
71312;SDS011;59104;44.738;20.612;2022-08-18T21:39:50;7.82;;;6.70;;
71312;SDS011;59104;44.738;20.612;2022-08-18T21:42:26;7.88;;;5.82;;
71312;SDS011;59104;44.738;20.612;2022-08-18T21:44:53;7.85;;;5.53;;
71312;SDS011;59104;44.738;20.612;2022-08-18T21:47:26;7.60;;;6.05;;
71312;SDS011;59104;44.738;20.612;2022-08-18T21:52:22;7.53;;;5.40;;
71312;SDS011;59104;44.738;20.612;2022-08-18T21:54:48;6.20;;;5.57;;
71312;SDS011;59104;44.738;20.612;2022-08-18T21:57:25;7.63;;;5.88;;
71312;SDS011;59104;44.738;20.612;2022-08-18T22:02:37;9.20;;;6.00;;
71312;SDS011;59104;44.738;20.612;2022-08-18T22:05:03;8.50;;;5.85;;
71312;SDS011;59104;44.738;20.612;2022-08-18T22:07:28;6.43;;;5.38;;
71312;SDS011;59104;44.738;20.612;2022-08-18T22:09:58;6.72;;;5.72;;
71312;SDS011;59104;44.738;20.612;2022-08-18T22:12:50;6.78;;;4.60;;
71312;SDS011;59104;44.738;20.612;2022-08-18T22:15:38;4.60;;;4.13;;
71312;SDS011;59104;44.738;20.612;2022-08-18T22:18:05;4.82;;;4.38;;
71312;SDS011;59104;44.738;20.612;2022-08-18T22:20:49;7.78;;;5.25;;
71312;SDS011;59104;44.738;20.612;2022-08-18T22:28:41;6.00;;;5.15;;
71312;SDS011;59104;44.738;20.612;2022-08-18T22:31:06;5.97;;;4.85;;
71312;SDS011;59104;44.738;20.612;2022-08-18T22:33:32;5.40;;;4.47;;
71312;SDS011;59104;44.738;20.612;2022-08-18T22:35:57;5.07;;;4.57;;
71312;SDS011;59104;44.738;20.612;2022-08-18T22:38:26;6.03;;;5.05;;
71312;SDS011;59104;44.738;20.612;2022-08-18T22:40:53;6.47;;;5.13;;
71312;SDS011;59104;44.738;20.612;2022-08-18T22:43:18;10.30;;;5.70;;
71312;SDS011;59104;44.738;20.612;2022-08-18T22:45:44;5.30;;;4.47;;
71312;SDS011;59104;44.738;20.612;2022-08-18T22:48:09;5.15;;;4.50;;
71312;SDS011;59104;44.738;20.612;2022-08-18T22:50:35;5.03;;;4.20;;
71312;SDS011;59104;44.738;20.612;2022-08-18T22:53:01;4.65;;;4.05;;
71312;SDS011;59104;44.738;20.612;2022-08-18T22:55:27;5.75;;;4.35;;
71312;SDS011;59104;44.738;20.612;2022-08-18T22:57:52;5.70;;;4.05;;
71312;SDS011;59104;44.738;20.612;2022-08-18T23:00:18;7.10;;;3.88;;
71312;SDS011;59104;44.738;20.612;2022-08-18T23:02:46;6.00;;;4.15;;
71312;SDS011;59104;44.738;20.612;2022-08-18T23:05:12;4.40;;;4.00;;
71312;SDS011;59104;44.738;20.612;2022-08-18T23:07:38;4.63;;;3.83;;
71312;SDS011;59104;44.738;20.612;2022-08-18T23:10:04;4.03;;;3.45;;
71312;SDS011;59104;44.738;20.612;2022-08-18T23:12:30;4.97;;;4.32;;
71312;SDS011;59104;44.738;20.612;2022-08-18T23:14:55;5.00;;;4.07;;
71312;SDS011;59104;44.738;20.612;2022-08-18T23:17:21;7.55;;;4.00;;
71312;SDS011;59104;44.738;20.612;2022-08-18T23:19:47;5.50;;;4.93;;
71312;SDS011;59104;44.738;20.612;2022-08-18T23:22:13;5.88;;;4.85;;
71312;SDS011;59104;44.738;20.612;2022-08-18T23:24:38;5.57;;;4.30;;
71312;SDS011;59104;44.738;20.612;2022-08-18T23:27:04;5.13;;;4.00;;
71312;SDS011;59104;44.738;20.612;2022-08-18T23:29:31;4.22;;;3.83;;
71312;SDS011;59104;44.738;20.612;2022-08-18T23:31:59;4.78;;;4.18;;
71312;SDS011;59104;44.738;20.612;2022-08-18T23:34:25;8.32;;;4.60;;
71312;SDS011;59104;44.738;20.612;2022-08-18T23:36:55;5.25;;;4.18;;
71312;SDS011;59104;44.738;20.612;2022-08-18T23:39:21;4.90;;;4.40;;
71312;SDS011;59104;44.738;20.612;2022-08-18T23:41:47;5.18;;;4.55;;
71312;SDS011;59104;44.738;20.612;2022-08-18T23:44:14;4.47;;;4.05;;
71312;SDS011;59104;44.738;20.612;2022-08-18T23:46:40;5.03;;;4.40;;
71312;SDS011;59104;44.738;20.612;2022-08-18T23:49:07;5.35;;;4.32;;
71312;SDS011;59104;44.738;20.612;2022-08-18T23:51:38;6.85;;;4.20;;
71312;SDS011;59104;44.738;20.612;2022-08-18T23:54:07;6.18;;;4.53;;
71312;SDS011;59104;44.738;20.612;2022-08-18T23:56:34;4.95;;;4.05;;